sensor_id;sensor_type;location;lat;lon;timestamp;P1;durP1;ratioP1;P2;durP2;ratioP2
32319;SDS011;19080;51.750;5.888;2023-06-10T00:01:40;7.22;;;6.05;;
32319;SDS011;19080;51.750;5.888;2023-06-10T00:04:07;6.70;;;5.68;;
32319;SDS011;19080;51.750;5.888;2023-06-10T00:06:34;6.10;;;5.50;;
32319;SDS011;19080;51.750;5.888;2023-06-10T00:09:06;6.55;;;5.78;;
32319;SDS011;19080;51.750;5.888;2023-06-10T00:11:37;9.27;;;5.97;;
32319;SDS011;19080;51.750;5.888;2023-06-10T00:14:03;9.75;;;6.32;;
32319;SDS011;19080;51.750;5.888;2023-06-10T00:16:30;12.77;;;6.35;;
32319;SDS011;19080;51.750;5.888;2023-06-10T00:18:58;6.38;;;5.57;;
32319;SDS011;19080;51.750;5.888;2023-06-10T00:21:31;7.18;;;6.47;;
32319;SDS011;19080;51.750;5.888;2023-06-10T00:24:07;6.70;;;6.00;;
32319;SDS011;19080;51.750;5.888;2023-06-10T00:26:41;7.05;;;6.38;;
32319;SDS011;19080;51.750;5.888;2023-06-10T00:29:09;11.30;;;7.20;;
32319;SDS011;19080;51.750;5.888;2023-06-10T00:31:36;9.10;;;6.80;;
32319;SDS011;19080;51.750;5.888;2023-06-10T00:34:06;8.15;;;6.15;;
32319;SDS011;19080;51.750;5.888;2023-06-10T00:36:33;7.22;;;6.50;;
32319;SDS011;19080;51.750;5.888;2023-06-10T00:39:02;11.98;;;6.70;;
32319;SDS011;19080;51.750;5.888;2023-06-10T00:41:30;7.80;;;6.00;;
32319;SDS011;19080;51.750;5.888;2023-06-10T00:43:57;7.82;;;6.70;;
32319;SDS011;19080;51.750;5.888;2023-06-10T00:46:24;6.78;;;5.97;;
32319;SDS011;19080;51.750;5.888;2023-06-10T00:48:54;6.88;;;5.97;;
32319;SDS011;19080;51.750;5.888;2023-06-10T00:51:21;8.05;;;6.35;;
32319;SDS011;19080;51.750;5.888;2023-06-10T00:53:48;10.10;;;6.82;;
32319;SDS011;19080;51.750;5.888;2023-06-10T00:56:16;9.18;;;6.45;;
32319;SDS011;19080;51.750;5.888;2023-06-10T00:58:42;9.50;;;7.20;;
32319;SDS011;19080;51.750;5.888;2023-06-10T01:01:10;7.88;;;6.38;;
32319;SDS011;19080;51.750;5.888;2023-06-10T01:03:38;10.07;;;6.38;;
32319;SDS011;19080;51.750;5.888;2023-06-10T01:09:06;8.35;;;6.57;;
32319;SDS011;19080;51.750;5.888;2023-06-10T01:11:40;7.32;;;6.47;;
32319;SDS011;19080;51.750;5.888;2023-06-10T01:14:13;9.60;;;6.75;;
32319;SDS011;19080;51.750;5.888;2023-06-10T01:16:41;7.20;;;6.50;;
32319;SDS011;19080;51.750;5.888;2023-06-10T01:19:09;8.80;;;6.97;;
32319;SDS011;19080;51.750;5.888;2023-06-10T01:21:37;11.65;;;7.50;;
32319;SDS011;19080;51.750;5.888;2023-06-10T01:24:05;8.77;;;7.43;;
32319;SDS011;19080;51.750;5.888;2023-06-10T01:26:34;8.63;;;6.60;;
32319;SDS011;19080;51.750;5.888;2023-06-10T01:29:16;7.18;;;6.47;;
32319;SDS011;19080;51.750;5.888;2023-06-10T01:31:49;8.75;;;6.63;;
32319;SDS011;19080;51.750;5.888;2023-06-10T01:34:21;10.27;;;6.80;;
32319;SDS011;19080;51.750;5.888;2023-06-10T01:36:51;10.90;;;7.32;;
32319;SDS011;19080;51.750;5.888;2023-06-10T01:39:21;8.35;;;6.82;;
32319;SDS011;19080;51.750;5.888;2023-06-10T01:41:50;7.82;;;7.03;;
32319;SDS011;19080;51.750;5.888;2023-06-10T01:44:19;8.25;;;6.78;;
32319;SDS011;19080;51.750;5.888;2023-06-10T01:46:47;10.38;;;7.30;;
32319;SDS011;19080;51.750;5.888;2023-06-10T01:49:14;8.80;;;7.30;;
32319;SDS011;19080;51.750;5.888;2023-06-10T01:51:42;11.73;;;7.25;;
32319;SDS011;19080;51.750;5.888;2023-06-10T01:54:09;7.70;;;6.88;;
32319;SDS011;19080;51.750;5.888;2023-06-10T01:56:36;8.90;;;7.00;;
32319;SDS011;19080;51.750;5.888;2023-06-10T01:59:03;10.32;;;6.60;;
32319;SDS011;19080;51.750;5.888;2023-06-10T02:01:30;10.13;;;7.13;;
32319;SDS011;19080;51.750;5.888;2023-06-10T02:03:56;8.93;;;7.35;;
32319;SDS011;19080;51.750;5.888;2023-06-10T02:06:23;8.73;;;7.45;;
32319;SDS011;19080;51.750;5.888;2023-06-10T02:08:54;9.43;;;7.00;;
32319;SDS011;19080;51.750;5.888;2023-06-10T02:11:20;7.65;;;6.72;;
32319;SDS011;19080;51.750;5.888;2023-06-10T02:13:48;10.98;;;7.95;;
32319;SDS011;19080;51.750;5.888;2023-06-10T02:16:15;7.88;;;7.07;;
32319;SDS011;19080;51.750;5.888;2023-06-10T02:18:43;14.05;;;6.90;;
32319;SDS011;19080;51.750;5.888;2023-06-10T02:21:10;8.38;;;7.50;;
32319;SDS011;19080;51.750;5.888;2023-06-10T02:23:37;9.65;;;8.40;;
32319;SDS011;19080;51.750;5.888;2023-06-10T02:26:03;9.57;;;7.07;;
32319;SDS011;19080;51.750;5.888;2023-06-10T02:28:31;10.10;;;7.60;;
32319;SDS011;19080;51.750;5.888;2023-06-10T02:30:58;7.68;;;6.88;;
32319;SDS011;19080;51.750;5.888;2023-06-10T02:33:26;10.02;;;7.30;;
32319;SDS011;19080;51.750;5.888;2023-06-10T02:35:53;7.38;;;6.60;;
32319;SDS011;19080;51.750;5.888;2023-06-10T02:38:22;9.05;;;7.47;;
32319;SDS011;19080;51.750;5.888;2023-06-10T02:40:49;7.85;;;7.05;;
32319;SDS011;19080;51.750;5.888;2023-06-10T02:43:17;8.88;;;7.47;;
32319;SDS011;19080;51.750;5.888;2023-06-10T02:45:44;9.30;;;7.43;;
32319;SDS011;19080;51.750;5.888;2023-06-10T02:48:13;12.25;;;6.47;;
32319;SDS011;19080;51.750;5.888;2023-06-10T02:50:40;11.20;;;7.00;;
32319;SDS011;19080;51.750;5.888;2023-06-10T02:53:19;11.55;;;7.03;;
32319;SDS011;19080;51.750;5.888;2023-06-10T02:55:52;11.55;;;7.32;;
32319;SDS011;19080;51.750;5.888;2023-06-10T02:58:19;9.25;;;7.05;;
32319;SDS011;19080;51.750;5.888;2023-06-10T03:00:47;7.97;;;7.07;;
32319;SDS011;19080;51.750;5.888;2023-06-10T03:03:14;7.25;;;6.43;;
32319;SDS011;19080;51.750;5.888;2023-06-10T03:05:56;10.63;;;7.13;;
32319;SDS011;19080;51.750;5.888;2023-06-10T03:08:24;7.60;;;6.88;;
32319;SDS011;19080;51.750;5.888;2023-06-10T03:10:51;12.05;;;7.40;;
32319;SDS011;19080;51.750;5.888;2023-06-10T03:13:20;10.02;;;7.25;;
32319;SDS011;19080;51.750;5.888;2023-06-10T03:15:48;13.43;;;7.35;;
32319;SDS011;19080;51.750;5.888;2023-06-10T03:18:18;12.32;;;7.78;;
32319;SDS011;19080;51.750;5.888;2023-06-10T03:20:46;9.13;;;7.15;;
32319;SDS011;19080;51.750;5.888;2023-06-10T03:23:13;8.75;;;7.43;;
32319;SDS011;19080;51.750;5.888;2023-06-10T03:25:40;12.15;;;7.57;;
32319;SDS011;19080;51.750;5.888;2023-06-10T03:28:09;9.05;;;7.82;;
32319;SDS011;19080;51.750;5.888;2023-06-10T03:30:36;8.27;;;7.45;;
32319;SDS011;19080;51.750;5.888;2023-06-10T03:33:03;10.25;;;7.55;;
32319;SDS011;19080;51.750;5.888;2023-06-10T03:35:30;10.18;;;7.50;;
32319;SDS011;19080;51.750;5.888;2023-06-10T03:37:59;9.88;;;7.57;;
32319;SDS011;19080;51.750;5.888;2023-06-10T03:40:26;10.00;;;7.35;;
32319;SDS011;19080;51.750;5.888;2023-06-10T03:42:54;9.82;;;6.93;;
32319;SDS011;19080;51.750;5.888;2023-06-10T03:45:20;10.40;;;7.35;;
32319;SDS011;19080;51.750;5.888;2023-06-10T03:47:47;12.15;;;7.13;;
32319;SDS011;19080;51.750;5.888;2023-06-10T03:50:17;10.68;;;7.20;;
32319;SDS011;19080;51.750;5.888;2023-06-10T03:52:44;14.73;;;7.45;;
32319;SDS011;19080;51.750;5.888;2023-06-10T03:55:13;11.00;;;6.90;;
32319;SDS011;19080;51.750;5.888;2023-06-10T03:57:43;7.80;;;7.00;;
32319;SDS011;19080;51.750;5.888;2023-06-10T04:00:10;9.50;;;6.47;;
32319;SDS011;19080;51.750;5.888;2023-06-10T04:02:41;10.85;;;7.63;;
32319;SDS011;19080;51.750;5.888;2023-06-10T04:05:19;10.02;;;7.30;;
32319;SDS011;19080;51.750;5.888;2023-06-10T04:10:19;10.23;;;7.03;;
32319;SDS011;19080;51.750;5.888;2023-06-10T04:12:45;11.85;;;7.22;;
32319;SDS011;19080;51.750;5.888;2023-06-10T04:15:13;10.15;;;7.43;;
32319;SDS011;19080;51.750;5.888;2023-06-10T04:17:41;13.13;;;6.72;;
32319;SDS011;19080;51.750;5.888;2023-06-10T04:20:10;10.93;;;6.93;;
32319;SDS011;19080;51.750;5.888;2023-06-10T04:22:40;10.85;;;7.00;;
32319;SDS011;19080;51.750;5.888;2023-06-10T04:25:08;9.55;;;7.65;;
32319;SDS011;19080;51.750;5.888;2023-06-10T04:27:37;8.45;;;6.30;;
32319;SDS011;19080;51.750;5.888;2023-06-10T04:30:04;10.55;;;6.70;;
32319;SDS011;19080;51.750;5.888;2023-06-10T04:32:34;8.95;;;6.32;;
32319;SDS011;19080;51.750;5.888;2023-06-10T04:35:01;14.77;;;7.95;;
32319;SDS011;19080;51.750;5.888;2023-06-10T04:37:29;11.13;;;7.75;;
32319;SDS011;19080;51.750;5.888;2023-06-10T04:39:55;13.63;;;7.40;;
32319;SDS011;19080;51.750;5.888;2023-06-10T04:42:23;9.82;;;7.10;;
32319;SDS011;19080;51.750;5.888;2023-06-10T04:44:50;8.90;;;7.07;;
32319;SDS011;19080;51.750;5.888;2023-06-10T04:47:17;9.75;;;7.85;;
32319;SDS011;19080;51.750;5.888;2023-06-10T04:49:44;10.73;;;7.10;;
32319;SDS011;19080;51.750;5.888;2023-06-10T04:52:11;9.77;;;7.63;;
32319;SDS011;19080;51.750;5.888;2023-06-10T04:54:41;10.82;;;7.13;;
32319;SDS011;19080;51.750;5.888;2023-06-10T04:57:07;11.27;;;8.00;;
32319;SDS011;19080;51.750;5.888;2023-06-10T04:59:34;13.77;;;7.43;;
32319;SDS011;19080;51.750;5.888;2023-06-10T05:02:04;9.77;;;7.43;;
32319;SDS011;19080;51.750;5.888;2023-06-10T05:04:31;11.93;;;7.70;;
32319;SDS011;19080;51.750;5.888;2023-06-10T05:06:58;10.82;;;7.15;;
32319;SDS011;19080;51.750;5.888;2023-06-10T05:09:25;12.02;;;8.18;;
32319;SDS011;19080;51.750;5.888;2023-06-10T05:11:52;11.25;;;7.63;;
32319;SDS011;19080;51.750;5.888;2023-06-10T05:14:20;10.65;;;7.63;;
32319;SDS011;19080;51.750;5.888;2023-06-10T05:16:48;10.43;;;7.55;;
32319;SDS011;19080;51.750;5.888;2023-06-10T05:19:15;8.98;;;7.07;;
32319;SDS011;19080;51.750;5.888;2023-06-10T05:21:45;13.30;;;7.55;;
32319;SDS011;19080;51.750;5.888;2023-06-10T05:24:12;10.60;;;6.95;;
32319;SDS011;19080;51.750;5.888;2023-06-10T05:26:38;12.30;;;7.38;;
32319;SDS011;19080;51.750;5.888;2023-06-10T05:29:06;10.30;;;7.35;;
32319;SDS011;19080;51.750;5.888;2023-06-10T05:31:33;8.32;;;6.72;;
32319;SDS011;19080;51.750;5.888;2023-06-10T05:34:00;9.40;;;7.13;;
32319;SDS011;19080;51.750;5.888;2023-06-10T05:36:26;11.10;;;7.18;;
32319;SDS011;19080;51.750;5.888;2023-06-10T05:38:54;9.23;;;7.38;;
32319;SDS011;19080;51.750;5.888;2023-06-10T05:41:21;13.73;;;6.85;;
32319;SDS011;19080;51.750;5.888;2023-06-10T05:43:48;10.77;;;7.35;;
32319;SDS011;19080;51.750;5.888;2023-06-10T05:46:15;10.02;;;7.72;;
32319;SDS011;19080;51.750;5.888;2023-06-10T05:48:42;9.93;;;7.53;;
32319;SDS011;19080;51.750;5.888;2023-06-10T05:51:08;11.93;;;8.02;;
32319;SDS011;19080;51.750;5.888;2023-06-10T05:53:36;11.80;;;7.90;;
32319;SDS011;19080;51.750;5.888;2023-06-10T05:56:03;9.68;;;7.63;;
32319;SDS011;19080;51.750;5.888;2023-06-10T05:58:30;13.57;;;7.85;;
32319;SDS011;19080;51.750;5.888;2023-06-10T06:00:57;11.27;;;7.05;;
32319;SDS011;19080;51.750;5.888;2023-06-10T06:03:23;12.32;;;6.93;;
32319;SDS011;19080;51.750;5.888;2023-06-10T06:05:50;9.38;;;6.57;;
32319;SDS011;19080;51.750;5.888;2023-06-10T06:08:17;9.13;;;6.85;;
32319;SDS011;19080;51.750;5.888;2023-06-10T06:10:45;8.40;;;6.45;;
32319;SDS011;19080;51.750;5.888;2023-06-10T06:13:12;9.63;;;7.32;;
32319;SDS011;19080;51.750;5.888;2023-06-10T06:15:39;10.50;;;7.60;;
32319;SDS011;19080;51.750;5.888;2023-06-10T06:18:05;13.38;;;6.90;;
32319;SDS011;19080;51.750;5.888;2023-06-10T06:20:32;7.70;;;6.20;;
32319;SDS011;19080;51.750;5.888;2023-06-10T06:22:59;7.88;;;6.60;;
32319;SDS011;19080;51.750;5.888;2023-06-10T06:25:25;11.73;;;7.15;;
32319;SDS011;19080;51.750;5.888;2023-06-10T06:27:52;7.55;;;6.20;;
32319;SDS011;19080;51.750;5.888;2023-06-10T06:30:19;9.82;;;6.97;;
32319;SDS011;19080;51.750;5.888;2023-06-10T06:32:46;11.20;;;6.95;;
32319;SDS011;19080;51.750;5.888;2023-06-10T06:35:12;11.15;;;7.13;;
32319;SDS011;19080;51.750;5.888;2023-06-10T06:37:39;11.80;;;6.20;;
32319;SDS011;19080;51.750;5.888;2023-06-10T06:40:16;7.32;;;6.32;;
32319;SDS011;19080;51.750;5.888;2023-06-10T06:42:42;8.05;;;5.55;;
32319;SDS011;19080;51.750;5.888;2023-06-10T06:45:28;8.98;;;6.20;;
32319;SDS011;19080;51.750;5.888;2023-06-10T06:47:54;7.65;;;6.00;;
32319;SDS011;19080;51.750;5.888;2023-06-10T06:50:22;9.23;;;6.20;;
32319;SDS011;19080;51.750;5.888;2023-06-10T06:52:49;9.65;;;6.35;;
32319;SDS011;19080;51.750;5.888;2023-06-10T06:55:15;8.65;;;6.40;;
32319;SDS011;19080;51.750;5.888;2023-06-10T06:57:42;6.60;;;5.35;;
32319;SDS011;19080;51.750;5.888;2023-06-10T07:00:09;8.40;;;5.35;;
32319;SDS011;19080;51.750;5.888;2023-06-10T07:02:36;8.85;;;5.70;;
32319;SDS011;19080;51.750;5.888;2023-06-10T07:05:03;8.68;;;6.13;;
32319;SDS011;19080;51.750;5.888;2023-06-10T07:07:30;8.63;;;5.70;;
32319;SDS011;19080;51.750;5.888;2023-06-10T07:09:56;6.60;;;5.40;;
32319;SDS011;19080;51.750;5.888;2023-06-10T07:12:23;7.57;;;5.88;;
32319;SDS011;19080;51.750;5.888;2023-06-10T07:14:50;8.60;;;5.80;;
32319;SDS011;19080;51.750;5.888;2023-06-10T07:17:17;10.70;;;6.18;;
32319;SDS011;19080;51.750;5.888;2023-06-10T07:19:45;7.38;;;5.88;;
32319;SDS011;19080;51.750;5.888;2023-06-10T07:22:12;8.80;;;5.97;;
32319;SDS011;19080;51.750;5.888;2023-06-10T07:24:39;8.60;;;5.78;;
32319;SDS011;19080;51.750;5.888;2023-06-10T07:27:06;8.40;;;5.38;;
32319;SDS011;19080;51.750;5.888;2023-06-10T07:29:33;7.53;;;6.18;;
32319;SDS011;19080;51.750;5.888;2023-06-10T07:32:05;8.88;;;5.60;;
32319;SDS011;19080;51.750;5.888;2023-06-10T07:34:32;10.07;;;5.80;;
32319;SDS011;19080;51.750;5.888;2023-06-10T07:36:58;9.05;;;6.20;;
32319;SDS011;19080;51.750;5.888;2023-06-10T07:39:25;8.35;;;4.78;;
32319;SDS011;19080;51.750;5.888;2023-06-10T07:41:52;12.43;;;6.40;;
32319;SDS011;19080;51.750;5.888;2023-06-10T07:44:20;9.75;;;5.78;;
32319;SDS011;19080;51.750;5.888;2023-06-10T07:46:47;9.23;;;6.20;;
32319;SDS011;19080;51.750;5.888;2023-06-10T07:49:14;9.48;;;5.72;;
32319;SDS011;19080;51.750;5.888;2023-06-10T07:51:41;8.90;;;5.70;;
32319;SDS011;19080;51.750;5.888;2023-06-10T07:54:07;10.73;;;5.72;;
32319;SDS011;19080;51.750;5.888;2023-06-10T07:56:35;15.35;;;5.75;;
32319;SDS011;19080;51.750;5.888;2023-06-10T07:59:02;7.85;;;5.10;;
32319;SDS011;19080;51.750;5.888;2023-06-10T08:01:29;8.82;;;5.38;;
32319;SDS011;19080;51.750;5.888;2023-06-10T08:03:56;8.93;;;5.00;;
32319;SDS011;19080;51.750;5.888;2023-06-10T08:06:23;8.55;;;5.50;;
32319;SDS011;19080;51.750;5.888;2023-06-10T08:08:50;10.02;;;5.40;;
32319;SDS011;19080;51.750;5.888;2023-06-10T08:11:16;8.05;;;4.82;;
32319;SDS011;19080;51.750;5.888;2023-06-10T08:13:43;9.73;;;5.82;;
32319;SDS011;19080;51.750;5.888;2023-06-10T08:16:10;9.85;;;5.32;;
32319;SDS011;19080;51.750;5.888;2023-06-10T08:18:36;5.70;;;5.15;;
32319;SDS011;19080;51.750;5.888;2023-06-10T08:21:03;7.80;;;5.40;;
32319;SDS011;19080;51.750;5.888;2023-06-10T08:23:30;6.10;;;4.90;;
32319;SDS011;19080;51.750;5.888;2023-06-10T08:25:56;8.07;;;5.10;;
32319;SDS011;19080;51.750;5.888;2023-06-10T08:28:24;6.88;;;4.97;;
32319;SDS011;19080;51.750;5.888;2023-06-10T08:30:50;7.55;;;4.80;;
32319;SDS011;19080;51.750;5.888;2023-06-10T08:33:17;8.57;;;5.38;;
32319;SDS011;19080;51.750;5.888;2023-06-10T08:35:44;8.20;;;5.03;;
32319;SDS011;19080;51.750;5.888;2023-06-10T08:38:11;9.48;;;5.00;;
32319;SDS011;19080;51.750;5.888;2023-06-10T08:40:37;11.95;;;5.15;;
32319;SDS011;19080;51.750;5.888;2023-06-10T08:43:08;7.38;;;4.85;;
32319;SDS011;19080;51.750;5.888;2023-06-10T08:45:43;8.45;;;5.28;;
32319;SDS011;19080;51.750;5.888;2023-06-10T08:50:43;6.60;;;5.35;;
32319;SDS011;19080;51.750;5.888;2023-06-10T08:53:11;9.68;;;5.03;;
32319;SDS011;19080;51.750;5.888;2023-06-10T08:55:43;14.57;;;5.15;;
32319;SDS011;19080;51.750;5.888;2023-06-10T08:58:15;9.73;;;4.70;;
32319;SDS011;19080;51.750;5.888;2023-06-10T09:00:42;7.28;;;4.28;;
32319;SDS011;19080;51.750;5.888;2023-06-10T09:03:09;5.50;;;4.63;;
32319;SDS011;19080;51.750;5.888;2023-06-10T09:05:37;7.72;;;5.00;;
32319;SDS011;19080;51.750;5.888;2023-06-10T09:08:05;8.35;;;5.22;;
32319;SDS011;19080;51.750;5.888;2023-06-10T09:10:33;12.65;;;5.03;;
32319;SDS011;19080;51.750;5.888;2023-06-10T09:13:00;5.85;;;5.00;;
32319;SDS011;19080;51.750;5.888;2023-06-10T09:15:27;7.18;;;5.00;;
32319;SDS011;19080;51.750;5.888;2023-06-10T09:17:54;10.43;;;5.05;;
32319;SDS011;19080;51.750;5.888;2023-06-10T09:20:21;8.38;;;4.53;;
32319;SDS011;19080;51.750;5.888;2023-06-10T09:22:47;8.15;;;4.57;;
32319;SDS011;19080;51.750;5.888;2023-06-10T09:25:15;7.05;;;4.85;;
32319;SDS011;19080;51.750;5.888;2023-06-10T09:27:47;6.82;;;5.00;;
32319;SDS011;19080;51.750;5.888;2023-06-10T09:30:24;6.18;;;4.45;;
32319;SDS011;19080;51.750;5.888;2023-06-10T09:32:55;10.45;;;5.07;;
32319;SDS011;19080;51.750;5.888;2023-06-10T09:35:25;9.57;;;5.50;;
32319;SDS011;19080;51.750;5.888;2023-06-10T09:37:54;8.75;;;4.65;;
32319;SDS011;19080;51.750;5.888;2023-06-10T09:40:22;7.57;;;5.13;;
32319;SDS011;19080;51.750;5.888;2023-06-10T09:42:53;8.10;;;5.25;;
32319;SDS011;19080;51.750;5.888;2023-06-10T09:45:21;6.70;;;5.20;;
32319;SDS011;19080;51.750;5.888;2023-06-10T09:47:52;7.00;;;4.43;;
32319;SDS011;19080;51.750;5.888;2023-06-10T09:50:20;8.65;;;4.97;;
32319;SDS011;19080;51.750;5.888;2023-06-10T09:52:47;12.07;;;4.72;;
32319;SDS011;19080;51.750;5.888;2023-06-10T09:55:14;11.18;;;4.78;;
32319;SDS011;19080;51.750;5.888;2023-06-10T09:57:41;5.93;;;5.15;;
32319;SDS011;19080;51.750;5.888;2023-06-10T10:00:11;6.45;;;5.03;;
32319;SDS011;19080;51.750;5.888;2023-06-10T10:05:14;8.70;;;4.63;;
32319;SDS011;19080;51.750;5.888;2023-06-10T10:07:42;6.68;;;4.95;;
32319;SDS011;19080;51.750;5.888;2023-06-10T10:10:10;9.10;;;4.50;;
32319;SDS011;19080;51.750;5.888;2023-06-10T10:12:38;7.55;;;4.65;;
32319;SDS011;19080;51.750;5.888;2023-06-10T10:15:06;8.98;;;5.15;;
32319;SDS011;19080;51.750;5.888;2023-06-10T10:17:38;5.72;;;4.20;;
32319;SDS011;19080;51.750;5.888;2023-06-10T10:20:16;5.10;;;4.68;;
32319;SDS011;19080;51.750;5.888;2023-06-10T10:22:46;11.77;;;5.50;;
32319;SDS011;19080;51.750;5.888;2023-06-10T10:25:16;5.30;;;4.80;;
32319;SDS011;19080;51.750;5.888;2023-06-10T10:30:17;8.70;;;5.22;;
32319;SDS011;19080;51.750;5.888;2023-06-10T10:32:52;4.95;;;4.40;;
32319;SDS011;19080;51.750;5.888;2023-06-10T10:35:25;12.43;;;4.85;;
32319;SDS011;19080;51.750;5.888;2023-06-10T10:37:53;7.43;;;4.30;;
32319;SDS011;19080;51.750;5.888;2023-06-10T10:40:21;7.55;;;3.95;;
32319;SDS011;19080;51.750;5.888;2023-06-10T10:42:50;5.97;;;4.63;;
32319;SDS011;19080;51.750;5.888;2023-06-10T10:45:17;7.20;;;4.28;;
32319;SDS011;19080;51.750;5.888;2023-06-10T10:47:45;5.15;;;4.25;;
32319;SDS011;19080;51.750;5.888;2023-06-10T10:50:16;7.55;;;4.35;;
32319;SDS011;19080;51.750;5.888;2023-06-10T10:55:23;11.77;;;4.38;;
32319;SDS011;19080;51.750;5.888;2023-06-10T10:58:06;5.40;;;4.88;;
32319;SDS011;19080;51.750;5.888;2023-06-10T11:00:34;8.30;;;4.50;;
32319;SDS011;19080;51.750;5.888;2023-06-10T11:05:40;7.80;;;4.50;;
32319;SDS011;19080;51.750;5.888;2023-06-10T11:08:14;6.00;;;4.35;;
32319;SDS011;19080;51.750;5.888;2023-06-10T11:11:17;7.88;;;4.18;;
32319;SDS011;19080;51.750;5.888;2023-06-10T11:13:57;11.77;;;5.13;;
32319;SDS011;19080;51.750;5.888;2023-06-10T11:16:40;9.88;;;4.30;;
32319;SDS011;19080;51.750;5.888;2023-06-10T11:19:08;5.95;;;3.67;;
32319;SDS011;19080;51.750;5.888;2023-06-10T11:24:25;5.00;;;4.43;;
32319;SDS011;19080;51.750;5.888;2023-06-10T11:26:52;6.55;;;4.57;;
32319;SDS011;19080;51.750;5.888;2023-06-10T11:29:19;7.40;;;4.63;;
32319;SDS011;19080;51.750;5.888;2023-06-10T11:31:50;5.82;;;4.45;;
32319;SDS011;19080;51.750;5.888;2023-06-10T11:34:21;6.85;;;3.90;;
32319;SDS011;19080;51.750;5.888;2023-06-10T11:36:50;4.70;;;4.13;;
32319;SDS011;19080;51.750;5.888;2023-06-10T11:39:18;6.65;;;4.28;;
32319;SDS011;19080;51.750;5.888;2023-06-10T11:41:46;6.13;;;4.00;;
32319;SDS011;19080;51.750;5.888;2023-06-10T11:44:14;6.13;;;3.90;;
32319;SDS011;19080;51.750;5.888;2023-06-10T11:46:45;8.13;;;4.03;;
32319;SDS011;19080;51.750;5.888;2023-06-10T11:49:14;7.25;;;4.22;;
32319;SDS011;19080;51.750;5.888;2023-06-10T11:51:41;5.32;;;4.20;;
32319;SDS011;19080;51.750;5.888;2023-06-10T11:54:15;4.38;;;3.88;;
32319;SDS011;19080;51.750;5.888;2023-06-10T11:56:42;6.60;;;3.88;;
32319;SDS011;19080;51.750;5.888;2023-06-10T11:59:09;7.00;;;3.67;;
32319;SDS011;19080;51.750;5.888;2023-06-10T12:01:36;10.00;;;4.50;;
32319;SDS011;19080;51.750;5.888;2023-06-10T12:04:10;6.70;;;4.20;;
32319;SDS011;19080;51.750;5.888;2023-06-10T12:06:46;5.63;;;4.28;;
32319;SDS011;19080;51.750;5.888;2023-06-10T12:09:18;5.28;;;3.72;;
32319;SDS011;19080;51.750;5.888;2023-06-10T12:11:50;5.88;;;4.10;;
32319;SDS011;19080;51.750;5.888;2023-06-10T12:20:02;6.07;;;4.20;;
32319;SDS011;19080;51.750;5.888;2023-06-10T12:22:50;9.32;;;3.88;;
32319;SDS011;19080;51.750;5.888;2023-06-10T12:25:17;5.45;;;3.88;;
32319;SDS011;19080;51.750;5.888;2023-06-10T12:27:50;8.38;;;4.75;;
32319;SDS011;19080;51.750;5.888;2023-06-10T12:30:23;9.13;;;4.00;;
32319;SDS011;19080;51.750;5.888;2023-06-10T12:32:51;4.15;;;3.75;;
32319;SDS011;19080;51.750;5.888;2023-06-10T12:35:20;7.55;;;4.15;;
32319;SDS011;19080;51.750;5.888;2023-06-10T12:40:34;5.78;;;3.83;;
32319;SDS011;19080;51.750;5.888;2023-06-10T12:43:02;6.55;;;3.92;;
32319;SDS011;19080;51.750;5.888;2023-06-10T12:45:33;8.75;;;3.90;;
32319;SDS011;19080;51.750;5.888;2023-06-10T12:50:39;4.90;;;4.03;;
32319;SDS011;19080;51.750;5.888;2023-06-10T12:53:07;5.95;;;4.15;;
32319;SDS011;19080;51.750;5.888;2023-06-10T12:55:34;8.45;;;4.65;;
32319;SDS011;19080;51.750;5.888;2023-06-10T12:58:01;6.35;;;3.85;;
32319;SDS011;19080;51.750;5.888;2023-06-10T13:00:29;8.27;;;4.30;;
32319;SDS011;19080;51.750;5.888;2023-06-10T13:02:57;6.03;;;4.18;;
32319;SDS011;19080;51.750;5.888;2023-06-10T13:05:27;8.93;;;3.93;;
32319;SDS011;19080;51.750;5.888;2023-06-10T13:07:54;5.00;;;4.03;;
32319;SDS011;19080;51.750;5.888;2023-06-10T13:10:21;4.57;;;3.55;;
32319;SDS011;19080;51.750;5.888;2023-06-10T13:12:51;5.90;;;3.70;;
32319;SDS011;19080;51.750;5.888;2023-06-10T13:15:18;8.63;;;3.85;;
32319;SDS011;19080;51.750;5.888;2023-06-10T13:17:45;5.97;;;4.22;;
32319;SDS011;19080;51.750;5.888;2023-06-10T13:20:16;6.97;;;4.18;;
32319;SDS011;19080;51.750;5.888;2023-06-10T13:22:43;4.05;;;3.65;;
32319;SDS011;19080;51.750;5.888;2023-06-10T13:25:09;6.30;;;3.72;;
32319;SDS011;19080;51.750;5.888;2023-06-10T13:27:37;5.03;;;3.95;;
32319;SDS011;19080;51.750;5.888;2023-06-10T13:30:05;7.20;;;3.65;;
32319;SDS011;19080;51.750;5.888;2023-06-10T13:32:33;6.50;;;3.95;;
32319;SDS011;19080;51.750;5.888;2023-06-10T13:35:00;6.90;;;4.20;;
32319;SDS011;19080;51.750;5.888;2023-06-10T13:37:31;4.57;;;3.90;;
32319;SDS011;19080;51.750;5.888;2023-06-10T13:40:00;5.20;;;4.32;;
32319;SDS011;19080;51.750;5.888;2023-06-10T13:42:27;5.53;;;4.40;;
32319;SDS011;19080;51.750;5.888;2023-06-10T13:44:55;5.57;;;3.70;;
32319;SDS011;19080;51.750;5.888;2023-06-10T13:47:23;5.65;;;4.28;;
32319;SDS011;19080;51.750;5.888;2023-06-10T13:49:50;9.07;;;4.55;;
32319;SDS011;19080;51.750;5.888;2023-06-10T13:52:17;5.05;;;3.78;;
32319;SDS011;19080;51.750;5.888;2023-06-10T13:54:44;4.80;;;4.32;;
32319;SDS011;19080;51.750;5.888;2023-06-10T13:57:11;5.00;;;4.45;;
32319;SDS011;19080;51.750;5.888;2023-06-10T13:59:37;5.15;;;3.75;;
32319;SDS011;19080;51.750;5.888;2023-06-10T14:02:04;4.28;;;3.90;;
32319;SDS011;19080;51.750;5.888;2023-06-10T14:04:31;4.55;;;4.10;;
32319;SDS011;19080;51.750;5.888;2023-06-10T14:06:58;3.97;;;3.67;;
32319;SDS011;19080;51.750;5.888;2023-06-10T14:09:25;5.38;;;4.10;;
32319;SDS011;19080;51.750;5.888;2023-06-10T14:11:52;5.30;;;4.13;;
32319;SDS011;19080;51.750;5.888;2023-06-10T14:14:18;5.63;;;4.03;;
32319;SDS011;19080;51.750;5.888;2023-06-10T14:16:45;6.50;;;3.75;;
32319;SDS011;19080;51.750;5.888;2023-06-10T14:19:12;7.72;;;4.13;;
32319;SDS011;19080;51.750;5.888;2023-06-10T14:21:39;4.10;;;3.60;;
32319;SDS011;19080;51.750;5.888;2023-06-10T14:24:06;4.20;;;3.80;;
32319;SDS011;19080;51.750;5.888;2023-06-10T14:26:32;4.03;;;3.45;;
32319;SDS011;19080;51.750;5.888;2023-06-10T14:28:59;5.82;;;4.50;;
32319;SDS011;19080;51.750;5.888;2023-06-10T14:31:26;4.57;;;3.72;;
32319;SDS011;19080;51.750;5.888;2023-06-10T14:33:52;4.85;;;3.78;;
32319;SDS011;19080;51.750;5.888;2023-06-10T14:36:19;9.13;;;4.10;;
32319;SDS011;19080;51.750;5.888;2023-06-10T14:38:46;6.25;;;4.00;;
32319;SDS011;19080;51.750;5.888;2023-06-10T14:41:12;6.72;;;4.18;;
32319;SDS011;19080;51.750;5.888;2023-06-10T14:43:39;6.35;;;4.50;;
32319;SDS011;19080;51.750;5.888;2023-06-10T14:46:06;4.32;;;3.88;;
32319;SDS011;19080;51.750;5.888;2023-06-10T14:48:32;4.32;;;3.92;;
32319;SDS011;19080;51.750;5.888;2023-06-10T14:50:59;6.20;;;3.65;;
32319;SDS011;19080;51.750;5.888;2023-06-10T14:53:26;5.50;;;4.18;;
32319;SDS011;19080;51.750;5.888;2023-06-10T14:55:53;4.20;;;3.90;;
32319;SDS011;19080;51.750;5.888;2023-06-10T14:58:19;4.72;;;4.03;;
32319;SDS011;19080;51.750;5.888;2023-06-10T15:00:46;6.38;;;3.90;;
32319;SDS011;19080;51.750;5.888;2023-06-10T15:03:13;5.00;;;4.05;;
32319;SDS011;19080;51.750;5.888;2023-06-10T15:05:40;7.45;;;4.35;;
32319;SDS011;19080;51.750;5.888;2023-06-10T15:08:06;6.85;;;4.10;;
32319;SDS011;19080;51.750;5.888;2023-06-10T15:10:34;4.35;;;3.83;;
32319;SDS011;19080;51.750;5.888;2023-06-10T15:13:00;4.55;;;4.10;;
32319;SDS011;19080;51.750;5.888;2023-06-10T15:15:27;4.93;;;4.20;;
32319;SDS011;19080;51.750;5.888;2023-06-10T15:17:54;6.05;;;3.85;;
32319;SDS011;19080;51.750;5.888;2023-06-10T15:20:20;6.07;;;4.32;;
32319;SDS011;19080;51.750;5.888;2023-06-10T15:22:47;5.28;;;3.53;;